createdAt,value
2019-04-29T00:05:45.066Z,73.50
2019-04-29T00:12:31.317Z,73.10
2019-04-29T00:19:24.535Z,73.70
2019-04-29T00:26:10.102Z,73.70
2019-04-29T00:32:55.335Z,73.50
2019-04-29T00:39:51.415Z,72.40
2019-04-29T00:46:36.703Z,72.70
2019-04-29T00:53:21.707Z,72.60
2019-04-29T01:00:08.314Z,73.30
2019-04-29T01:06:55.115Z,74.10
2019-04-29T01:13:39.968Z,76.10
2019-04-29T01:20:24.822Z,78.90
2019-04-29T01:27:11.384Z,79.70
2019-04-29T01:33:57.930Z,79.60
2019-04-29T01:40:47.878Z,79.70
2019-04-29T01:47:32.747Z,79.40
2019-04-29T01:54:17.730Z,79.90
2019-04-29T02:01:02.699Z,80.00
2019-04-29T02:07:47.911Z,81.20
2019-04-29T02:14:33.079Z,81.30
2019-04-29T02:21:18.107Z,81.50
2019-04-29T02:28:03.053Z,81.40
2019-04-29T02:34:48.546Z,81.40
2019-04-29T02:41:38.149Z,81.20
2019-04-29T02:48:23.307Z,81.60
2019-04-29T02:55:10.295Z,81.50
2019-04-29T03:02:06.677Z,81.40
2019-04-29T03:08:51.772Z,81.40
2019-04-29T03:15:39.698Z,82.30
2019-04-29T03:22:25.308Z,84.20
2019-04-29T03:29:12.038Z,85.30
2019-04-29T03:35:57.179Z,85.70
2019-04-29T03:42:43.271Z,85.50
2019-04-29T03:49:28.119Z,85.20
2019-04-29T03:56:13.279Z,85.20
2019-04-29T04:03:14.775Z,85.10
2019-04-29T04:09:59.735Z,85.20
2019-04-29T04:17:04.965Z,85.30
2019-04-29T04:23:50.027Z,85.80
2019-04-29T04:30:35.043Z,85.40
2019-04-29T04:37:20.010Z,85.60
2019-04-29T04:44:05.080Z,85.60
2019-04-29T04:50:50.049Z,85.10
2019-04-29T04:57:35.101Z,82.70
2019-04-29T05:04:20.098Z,80.70
2019-04-29T05:11:05.070Z,80.10
2019-04-29T05:17:53.033Z,79.30
2019-04-29T05:24:36.694Z,77.10
2019-04-29T05:31:21.564Z,73.20
2019-04-29T05:38:13.922Z,70.40
2019-04-29T05:45:16.863Z,70.40
2019-04-29T05:52:15.787Z,70.20
2019-04-29T05:59:00.751Z,66.60
2019-04-29T06:05:45.758Z,65.70
2019-04-29T06:12:30.902Z,65.60
2019-04-29T06:19:15.901Z,63.50
2019-04-29T06:26:01.252Z,62.10
2019-04-29T06:32:46.389Z,60.60
2019-04-29T06:39:31.632Z,56.30
2019-04-29T06:46:16.669Z,56.90
2019-04-29T06:53:02.120Z,54.80
2019-04-29T06:59:48.628Z,52.60
2019-04-29T07:06:33.675Z,50.00
2019-04-29T07:13:22.930Z,43.80
2019-04-29T07:20:06.923Z,36.70
2019-04-29T07:26:51.972Z,35.30
2019-04-29T07:33:37.050Z,40.70
2019-04-29T07:40:22.445Z,38.50
2019-04-29T07:47:07.378Z,40.60
2019-04-29T07:53:52.359Z,42.00
2019-04-29T08:00:37.552Z,41.60
2019-04-29T08:07:23.797Z,42.80
2019-04-29T08:14:08.810Z,41.90
2019-04-29T08:20:54.047Z,39.00
2019-04-29T08:27:41.862Z,37.10
2019-04-29T08:34:25.759Z,36.80
2019-04-29T08:41:10.927Z,36.40
2019-04-29T08:47:56.043Z,35.10
2019-04-29T08:54:41.254Z,34.70
2019-04-29T09:01:29.308Z,32.60
2019-04-29T09:08:13.523Z,31.40
2019-04-29T09:14:59.023Z,34.00
2019-04-29T09:21:45.733Z,32.80
2019-04-29T09:28:30.835Z,30.80
2019-04-29T09:35:16.471Z,31.80
2019-04-29T09:42:03.577Z,29.70
2019-04-29T09:48:48.942Z,29.40
2019-04-29T09:55:35.612Z,29.10
2019-04-29T10:02:37.719Z,28.90
2019-04-29T10:09:23.356Z,27.20
2019-04-29T10:16:09.983Z,27.40
2019-04-29T10:22:55.031Z,29.30
2019-04-29T10:29:41.851Z,29.30
2019-04-29T10:36:27.227Z,29.30
2019-04-29T10:43:17.285Z,29.80
2019-04-29T10:50:19.545Z,30.10
2019-04-29T10:57:05.228Z,31.60
2019-04-29T11:03:50.539Z,30.10
2019-04-29T11:10:36.113Z,29.50
2019-04-29T11:17:23.029Z,31.00
2019-04-29T11:24:09.844Z,28.40
2019-04-29T11:30:55.120Z,28.80
2019-04-29T11:37:41.312Z,28.90
2019-04-29T11:44:27.689Z,29.70
2019-04-29T11:51:20.315Z,28.60
2019-04-29T11:58:13.256Z,28.40
2019-04-29T12:05:04.273Z,28.00
2019-04-29T12:11:46.598Z,27.10
2019-04-29T12:18:33.999Z,25.00
2019-04-29T12:25:22.987Z,25.60
2019-04-29T12:32:14.201Z,25.90
2019-04-29T12:39:03.710Z,24.80
2019-04-29T12:45:53.672Z,24.20
2019-04-29T12:52:38.689Z,26.30
2019-04-29T12:59:24.659Z,26.70
2019-04-29T13:06:24.347Z,27.40
2019-04-29T13:13:11.442Z,27.10
2019-04-29T13:20:07.346Z,28.00
2019-04-29T13:26:51.007Z,26.90
2019-04-29T13:33:35.969Z,26.60
2019-04-29T13:40:21.315Z,27.00
2019-04-29T13:47:10.764Z,26.60
2019-04-29T13:53:59.792Z,26.60
2019-04-29T14:00:59.865Z,27.20
2019-04-29T14:07:43.407Z,27.70
2019-04-29T14:14:28.706Z,27.70
2019-04-29T14:21:13.787Z,27.40
2019-04-29T14:27:58.907Z,27.40
2019-04-29T14:34:57.578Z,27.90
2019-04-29T14:41:44.499Z,28.70
2019-04-29T14:48:42.037Z,29.30
2019-04-29T14:55:19.880Z,30.40
2019-04-29T15:02:16.205Z,31.60
2019-04-29T15:08:54.623Z,40.30
2019-04-29T15:15:41.438Z,42.60
2019-04-29T15:22:28.523Z,41.00
2019-04-29T15:29:13.955Z,36.10
2019-04-29T15:35:59.909Z,34.30
2019-04-29T15:42:49.135Z,32.20
2019-04-29T15:49:32.500Z,30.70
2019-04-29T15:56:28.219Z,30.00
2019-04-29T16:03:04.170Z,32.70
2019-04-29T16:09:52.128Z,35.40
2019-04-29T16:16:38.380Z,34.60
2019-04-29T16:23:23.334Z,36.80
2019-04-29T16:30:09.579Z,44.50
2019-04-29T16:36:54.874Z,49.20
2019-04-29T16:43:42.583Z,51.70
2019-04-29T16:50:27.898Z,52.40
2019-04-29T16:57:37.812Z,52.90
2019-04-29T17:04:22.848Z,54.60
2019-04-29T17:11:12.063Z,54.80
2019-04-29T17:17:56.242Z,56.50
2019-04-29T17:24:41.252Z,58.50
2019-04-29T17:31:31.281Z,59.10
2019-04-29T17:38:16.598Z,60.00
2019-04-29T17:45:10.498Z,60.50
2019-04-29T17:51:49.859Z,61.70
2019-04-29T17:58:51.272Z,62.00
2019-04-29T18:05:52.917Z,62.30
2019-04-29T18:12:26.286Z,62.40
2019-04-29T18:19:18.804Z,62.70
2019-04-29T18:26:06.225Z,62.80
2019-04-29T18:32:53.024Z,63.20
2019-04-29T18:39:38.602Z,63.70
2019-04-29T18:46:25.885Z,64.60
2019-04-29T18:53:11.455Z,65.20
2019-04-29T18:59:56.440Z,65.80
2019-04-29T19:06:41.966Z,65.50
2019-04-29T19:13:27.063Z,65.40
2019-04-29T19:20:16.679Z,65.70
2019-04-29T19:27:01.075Z,67.40
2019-04-29T19:33:47.107Z,67.20
2019-04-29T19:40:38.907Z,68.20
2019-04-29T19:47:18.835Z,68.80
2019-04-29T19:54:05.151Z,70.60
2019-04-29T20:00:51.800Z,71.50
2019-04-29T20:07:42.331Z,72.20
2019-04-29T20:14:29.656Z,72.40
2019-04-29T20:21:24.641Z,70.80
2019-04-29T20:28:06.050Z,70.60
2019-04-29T20:34:48.522Z,70.60
2019-04-29T20:41:40.696Z,70.30
2019-04-29T20:48:21.036Z,70.20
2019-04-29T20:55:09.287Z,70.30
2019-04-29T21:02:12.090Z,71.40
2019-04-29T21:08:50.958Z,71.80
2019-04-29T21:15:39.650Z,72.00
2019-04-29T21:22:26.049Z,71.30
2019-04-29T21:29:15.747Z,72.10
2019-04-29T21:35:59.442Z,73.30
2019-04-29T21:42:47.370Z,72.90
2019-04-29T21:49:43.273Z,71.60
2019-04-29T21:56:18.838Z,72.10
2019-04-29T22:03:05.409Z,71.00
2019-04-29T22:09:50.486Z,70.00
2019-04-29T22:16:35.672Z,70.00
2019-04-29T22:23:21.600Z,70.00
2019-04-29T22:30:10.247Z,69.80
2019-04-29T22:36:58.310Z,69.50
2019-04-29T22:43:46.958Z,69.90
2019-04-29T22:50:33.746Z,69.50
2019-04-29T22:57:22.969Z,69.70
2019-04-29T23:04:09.582Z,69.60
2019-04-29T23:10:52.495Z,69.50
2019-04-29T23:17:37.540Z,70.30
2019-04-29T23:24:40.303Z,70.90
2019-04-29T23:31:27.095Z,72.00
2019-04-29T23:38:12.950Z,72.10
2019-04-29T23:44:57.855Z,71.90
2019-04-29T23:51:42.741Z,72.90
2019-04-29T23:58:37.246Z,73.40
